createdAt,value
2023-03-17T00:00:22.264Z,0.00
2023-03-17T00:01:24.035Z,0.00
2023-03-17T00:02:25.114Z,0.00
2023-03-17T00:03:22.659Z,0.00
2023-03-17T00:04:22.475Z,0.00
2023-03-17T00:05:22.970Z,0.00
2023-03-17T00:06:25.229Z,0.00
2023-03-17T00:07:23.105Z,0.00
2023-03-17T00:08:24.894Z,0.00
2023-03-17T00:09:23.762Z,0.00
2023-03-17T00:10:24.276Z,0.00
2023-03-17T00:11:24.923Z,0.00
2023-03-17T00:12:24.269Z,0.00
2023-03-17T00:13:24.739Z,0.00
2023-03-17T00:14:26.017Z,0.00
2023-03-17T00:15:26.385Z,0.00
2023-03-17T00:16:25.366Z,0.00
2023-03-17T00:17:25.240Z,0.00
2023-03-17T00:18:25.461Z,0.00
2023-03-17T00:19:26.189Z,0.00
2023-03-17T00:20:25.861Z,0.00
2023-03-17T00:21:25.924Z,0.00
2023-03-17T00:22:26.042Z,0.00
2023-03-17T00:23:25.879Z,0.00
2023-03-17T00:24:26.134Z,0.00
2023-03-17T00:25:28.383Z,0.00
2023-03-17T00:26:28.950Z,0.00
2023-03-17T00:27:28.809Z,0.00
2023-03-17T00:28:27.575Z,0.00
2023-03-17T00:29:27.532Z,0.00
2023-03-17T00:30:27.981Z,0.00
2023-03-17T00:31:28.759Z,0.00
2023-03-17T00:32:30.182Z,0.00
2023-03-17T00:33:29.806Z,0.00
2023-03-17T00:34:28.141Z,0.00
2023-03-17T00:35:30.609Z,0.00
2023-03-17T00:36:29.482Z,0.00
2023-03-17T00:37:28.762Z,0.00
2023-03-17T00:38:30.060Z,0.00
2023-03-17T00:39:30.306Z,0.00
2023-03-17T00:40:29.814Z,0.00
2023-03-17T00:41:29.764Z,0.00
2023-03-17T00:42:32.189Z,0.00
2023-03-17T00:43:31.057Z,0.00
2023-03-17T00:44:31.585Z,0.00
2023-03-17T00:45:30.354Z,0.00
2023-03-17T00:46:30.950Z,0.00
2023-03-17T00:47:30.748Z,0.00
2023-03-17T00:48:32.416Z,0.00
2023-03-17T00:49:31.354Z,0.00
2023-03-17T00:50:32.224Z,0.00
2023-03-17T00:51:32.391Z,0.00
2023-03-17T00:52:32.136Z,0.00
2023-03-17T00:53:33.971Z,0.00
2023-03-17T00:54:33.124Z,0.00
2023-03-17T00:55:34.799Z,0.00
2023-03-17T00:56:33.905Z,0.00
2023-03-17T00:57:34.430Z,0.00
2023-03-17T00:58:33.862Z,0.00
2023-03-17T00:59:34.740Z,0.00
2023-03-17T01:00:34.193Z,0.00
2023-03-17T01:01:35.259Z,0.00
2023-03-17T01:02:35.564Z,0.00
2023-03-17T01:03:34.378Z,0.00
2023-03-17T01:04:34.434Z,0.00
2023-03-17T01:05:34.289Z,0.00
2023-03-17T01:07:35.904Z,0.00
2023-03-17T01:08:35.739Z,0.00
2023-03-17T01:09:34.550Z,0.00
2023-03-17T01:10:35.291Z,0.00
2023-03-17T01:11:35.059Z,0.00
2023-03-17T01:12:36.319Z,0.00
2023-03-17T01:13:35.655Z,0.00
2023-03-17T01:14:37.862Z,0.00
2023-03-17T01:15:37.634Z,0.00
2023-03-17T01:16:39.466Z,0.00
2023-03-17T01:17:36.405Z,0.00
2023-03-17T01:18:37.276Z,0.00
2023-03-17T01:19:36.605Z,0.00
2023-03-17T01:21:27.064Z,0.00
2023-03-17T01:22:26.654Z,0.00
2023-03-17T01:23:26.320Z,0.00
2023-03-17T01:24:26.834Z,0.00
2023-03-17T01:25:26.320Z,0.00
2023-03-17T01:26:26.647Z,0.00
2023-03-17T01:27:27.144Z,0.00
2023-03-17T01:28:27.728Z,0.00
2023-03-17T01:29:27.767Z,0.00
2023-03-17T01:30:28.542Z,0.00
2023-03-17T01:31:28.462Z,0.00
2023-03-17T01:32:28.626Z,0.00
2023-03-17T01:33:28.648Z,0.00
2023-03-17T01:34:30.203Z,0.00
2023-03-17T01:35:30.102Z,0.00
2023-03-17T01:36:30.605Z,0.00
2023-03-17T01:37:30.412Z,0.00
2023-03-17T01:38:30.247Z,0.00
2023-03-17T01:39:31.554Z,0.00
2023-03-17T01:40:31.435Z,0.00
2023-03-17T01:41:31.124Z,0.00
2023-03-17T01:42:31.413Z,0.00
2023-03-17T01:43:32.024Z,0.00
2023-03-17T01:44:31.972Z,0.00
2023-03-17T01:45:32.039Z,0.00
2023-03-17T01:46:32.740Z,0.00
2023-03-17T01:47:32.588Z,0.00
2023-03-17T01:48:34.884Z,0.00
2023-03-17T01:49:33.875Z,0.00
2023-03-17T01:50:34.042Z,0.00
2023-03-17T01:51:35.039Z,0.00
2023-03-17T01:52:34.669Z,0.00
2023-03-17T01:53:36.114Z,0.00
2023-03-17T01:54:34.919Z,0.00
2023-03-17T01:55:34.904Z,0.00
2023-03-17T01:56:35.039Z,0.00
2023-03-17T01:57:35.140Z,0.00
2023-03-17T01:58:35.009Z,0.00
2023-03-17T01:59:35.533Z,0.00
2023-03-17T02:00:35.475Z,0.00
2023-03-17T02:01:35.827Z,0.00
2023-03-17T02:02:36.109Z,0.00
2023-03-17T02:03:37.766Z,0.00
2023-03-17T02:04:36.790Z,0.00
2023-03-17T02:05:38.781Z,0.00
2023-03-17T02:06:55.075Z,0.00
2023-03-17T02:07:40.382Z,0.00
2023-03-17T02:08:38.787Z,0.00
2023-03-17T02:09:38.974Z,0.00
2023-03-17T02:10:38.719Z,0.00
2023-03-17T02:11:38.835Z,0.00
2023-03-17T02:12:40.351Z,0.00
2023-03-17T02:13:41.736Z,0.00
2023-03-17T02:14:39.840Z,0.00
2023-03-17T02:15:40.445Z,0.00
2023-03-17T02:16:41.386Z,0.00
2023-03-17T02:17:41.605Z,0.00
2023-03-17T02:18:42.237Z,0.00
2023-03-17T02:19:41.099Z,0.00
2023-03-17T02:20:42.464Z,0.00
2023-03-17T02:21:42.656Z,0.00
2023-03-17T02:22:43.157Z,0.00
2023-03-17T02:23:42.571Z,0.00
2023-03-17T02:24:43.270Z,0.00
2023-03-17T02:25:45.573Z,0.00
2023-03-17T02:26:47.226Z,0.00
2023-03-17T02:27:43.601Z,0.00
2023-03-17T02:28:43.955Z,0.00
2023-03-17T02:29:44.451Z,0.00
2023-03-17T02:30:47.352Z,0.00
2023-03-17T02:31:45.346Z,0.00
2023-03-17T02:32:45.309Z,0.00
2023-03-17T02:33:45.249Z,0.00
2023-03-17T02:34:45.605Z,0.00
2023-03-17T02:35:48.183Z,0.00
2023-03-17T02:36:49.769Z,0.00
2023-03-17T02:37:46.424Z,0.00
2023-03-17T02:38:47.115Z,0.00
2023-03-17T02:39:47.784Z,0.00
2023-03-17T02:40:48.010Z,0.00
2023-03-17T02:41:48.533Z,0.00
2023-03-17T02:42:48.914Z,0.00
2023-03-17T02:43:48.100Z,0.00
2023-03-17T02:44:48.901Z,0.00
2023-03-17T02:45:49.798Z,0.00
2023-03-17T02:46:50.909Z,0.00
2023-03-17T02:47:48.883Z,0.00
2023-03-17T02:48:52.240Z,0.00
2023-03-17T02:49:50.831Z,0.00
2023-03-17T02:50:51.041Z,0.00
2023-03-17T02:51:51.647Z,0.00
2023-03-17T02:52:52.097Z,0.00
2023-03-17T02:53:51.338Z,0.00
2023-03-17T02:54:51.739Z,0.00
2023-03-17T02:55:53.102Z,0.00
2023-03-17T02:56:53.203Z,0.00
2023-03-17T02:57:53.039Z,0.00
2023-03-17T02:58:52.415Z,0.00
2023-03-17T02:59:52.788Z,0.00
2023-03-17T03:00:55.245Z,0.00
2023-03-17T03:01:55.554Z,0.00
2023-03-17T03:02:54.143Z,0.00
2023-03-17T03:03:56.337Z,0.00
2023-03-17T03:04:55.818Z,0.00
2023-03-17T03:05:56.843Z,0.00
2023-03-17T03:06:58.244Z,0.00
2023-03-17T03:07:55.262Z,0.00
2023-03-17T03:08:55.503Z,0.00
2023-03-17T03:09:55.688Z,0.00
2023-03-17T03:10:55.601Z,0.00
2023-03-17T03:11:56.474Z,0.00
2023-03-17T03:12:58.085Z,0.00
2023-03-17T03:13:56.661Z,0.00
2023-03-17T03:14:57.026Z,0.00
2023-03-17T03:15:57.360Z,0.00
2023-03-17T03:16:59.672Z,0.00
2023-03-17T03:17:58.416Z,0.00
2023-03-17T03:19:01.967Z,0.00
2023-03-17T03:20:00.708Z,0.00
2023-03-17T03:20:58.910Z,0.00
2023-03-17T03:21:59.421Z,0.00
2023-03-17T03:22:59.836Z,0.00
2023-03-17T03:24:00.608Z,0.00
2023-03-17T03:25:01.908Z,0.00
2023-03-17T03:26:01.006Z,0.00
2023-03-17T03:27:02.390Z,0.00
2023-03-17T03:28:01.909Z,0.00
2023-03-17T03:29:03.274Z,0.00
2023-03-17T03:30:02.229Z,0.00
2023-03-17T03:31:02.761Z,0.00
2023-03-17T03:32:05.337Z,0.00
2023-03-17T03:33:04.618Z,0.00
2023-03-17T03:34:03.359Z,0.00
2023-03-17T03:35:04.903Z,0.00
2023-03-17T03:36:05.611Z,0.00
2023-03-17T03:37:04.282Z,0.00
2023-03-17T03:38:04.611Z,0.00
2023-03-17T03:39:05.209Z,0.00
2023-03-17T03:40:05.430Z,0.00
2023-03-17T03:41:05.286Z,0.00
2023-03-17T03:42:06.371Z,0.00
2023-03-17T03:43:19.889Z,0.00
2023-03-17T03:44:06.565Z,0.00
2023-03-17T03:45:06.926Z,0.00
2023-03-17T03:46:07.936Z,0.00
2023-03-17T03:47:07.420Z,0.00
2023-03-17T03:48:07.853Z,0.00
2023-03-17T03:49:08.285Z,0.00
2023-03-17T03:50:09.295Z,0.00
2023-03-17T03:51:09.640Z,0.00
2023-03-17T03:52:09.662Z,0.00
2023-03-17T03:53:09.425Z,0.00
2023-03-17T03:54:09.621Z,0.00
2023-03-17T03:55:09.800Z,0.00
2023-03-17T03:56:10.001Z,0.00
2023-03-17T03:57:10.642Z,0.00
2023-03-17T03:58:10.638Z,0.00
2023-03-17T03:59:10.229Z,0.00
2023-03-17T04:00:11.440Z,0.00
2023-03-17T04:01:10.963Z,0.00
2023-03-17T04:02:11.415Z,0.00
2023-03-17T04:03:12.116Z,0.00
2023-03-17T04:04:13.776Z,0.00
2023-03-17T04:05:12.683Z,0.00
2023-03-17T04:06:12.577Z,0.00
2023-03-17T04:07:12.244Z,0.00
2023-03-17T04:08:13.797Z,0.00
2023-03-17T04:09:12.322Z,0.00
2023-03-17T04:10:12.297Z,0.00
2023-03-17T04:11:12.655Z,0.00
2023-03-17T04:12:13.044Z,0.00
2023-03-17T04:13:14.370Z,0.00
2023-03-17T04:14:13.915Z,0.00
2023-03-17T04:15:16.007Z,0.00
2023-03-17T04:16:15.385Z,0.00
2023-03-17T04:17:14.679Z,0.00
2023-03-17T04:18:15.179Z,0.00
2023-03-17T04:19:16.617Z,0.00
2023-03-17T04:20:17.038Z,0.00
2023-03-17T04:21:16.444Z,0.00
2023-03-17T04:22:17.671Z,0.00
2023-03-17T04:23:17.918Z,0.00
2023-03-17T04:24:17.348Z,0.00
2023-03-17T04:25:19.442Z,0.00
2023-03-17T04:26:17.825Z,0.00
2023-03-17T04:27:18.221Z,0.00
2023-03-17T04:28:20.581Z,0.00
2023-03-17T04:29:19.050Z,0.00
2023-03-17T04:30:19.487Z,0.00
2023-03-17T04:31:19.854Z,0.00
2023-03-17T04:32:20.280Z,0.00
2023-03-17T04:33:21.573Z,0.00
2023-03-17T04:34:21.024Z,0.00
2023-03-17T04:35:22.343Z,0.00
2023-03-17T04:36:24.042Z,0.00
2023-03-17T04:37:21.949Z,0.00
2023-03-17T04:38:22.329Z,0.00
2023-03-17T04:39:23.855Z,0.00
2023-03-17T04:40:23.063Z,0.00
2023-03-17T04:41:23.219Z,0.00
2023-03-17T04:42:25.651Z,0.00
2023-03-17T04:43:24.134Z,0.00
2023-03-17T04:44:24.953Z,0.00
2023-03-17T04:45:25.930Z,0.00
2023-03-17T04:46:26.242Z,0.00
2023-03-17T04:47:25.628Z,0.00
2023-03-17T04:48:26.617Z,0.00
2023-03-17T04:49:26.875Z,0.00
2023-03-17T04:50:26.508Z,0.00
2023-03-17T04:51:26.777Z,0.00
2023-03-17T04:52:27.122Z,0.00
2023-03-17T04:53:29.335Z,0.00
2023-03-17T04:54:27.185Z,0.00
2023-03-17T04:55:30.576Z,0.00
2023-03-17T04:56:28.176Z,1.00
2023-03-17T04:57:28.410Z,1.00
2023-03-17T04:58:31.073Z,1.00
2023-03-17T04:59:29.235Z,1.00
2023-03-17T05:00:29.618Z,1.00
2023-03-17T05:01:31.488Z,2.00
2023-03-17T05:02:30.046Z,2.00
2023-03-17T05:03:31.196Z,3.00
2023-03-17T05:04:32.043Z,3.00
2023-03-17T05:05:31.433Z,3.00
2023-03-17T05:07:32.827Z,5.00
2023-03-17T05:08:32.808Z,7.00
2023-03-17T05:09:32.062Z,7.00
2023-03-17T05:10:32.918Z,10.00
2023-03-17T05:11:31.557Z,11.00
2023-03-17T05:12:33.709Z,14.00
2023-03-17T05:13:32.469Z,16.00
2023-03-17T05:14:32.889Z,19.00
2023-03-17T05:15:34.102Z,23.00
2023-03-17T05:16:38.995Z,28.00
2023-03-17T05:17:33.307Z,32.00
2023-03-17T05:18:33.651Z,39.00
2023-03-17T05:19:34.239Z,46.00
2023-03-17T05:20:34.218Z,54.00
2023-03-17T05:21:38.079Z,62.00
2023-03-17T05:22:34.392Z,72.00
2023-03-17T05:23:34.788Z,83.00
2023-03-17T05:24:38.020Z,95.00
2023-03-17T05:25:35.677Z,107.00
2023-03-17T05:26:37.448Z,121.00
2023-03-17T05:27:36.242Z,136.00
2023-03-17T05:28:37.394Z,151.00
2023-03-17T05:29:36.593Z,168.00
2023-03-17T05:30:37.292Z,186.00
2023-03-17T05:31:37.237Z,204.00
2023-03-17T05:32:37.611Z,223.00
2023-03-17T05:33:38.027Z,243.00
2023-03-17T05:34:38.746Z,264.00
2023-03-17T05:35:38.613Z,285.00
2023-03-17T05:37:39.149Z,332.00
2023-03-17T05:38:43.295Z,357.00
2023-03-17T05:39:41.938Z,385.00
2023-03-17T05:40:42.315Z,412.00
2023-03-17T05:41:43.062Z,444.00
2023-03-17T05:42:40.845Z,478.00
2023-03-17T05:43:41.419Z,515.00
2023-03-17T05:44:41.401Z,554.00
2023-03-17T05:45:41.776Z,597.00
2023-03-17T05:46:44.662Z,643.00
2023-03-17T05:47:42.100Z,688.00
2023-03-17T05:48:43.582Z,734.00
2023-03-17T05:49:42.529Z,778.00
2023-03-17T05:50:44.203Z,820.00
2023-03-17T05:51:43.098Z,867.00
2023-03-17T05:52:43.402Z,914.00
2023-03-17T05:53:44.059Z,961.00
2023-03-17T05:54:44.298Z,1008.00
2023-03-17T05:55:45.222Z,1060.00
2023-03-17T05:56:47.795Z,1111.00
2023-03-17T05:57:44.708Z,1166.00
2023-03-17T05:58:47.757Z,1221.00
2023-03-17T05:59:45.993Z,1289.00
2023-03-17T06:00:45.343Z,1375.00
2023-03-17T06:01:45.935Z,1466.00
2023-03-17T06:02:47.103Z,1533.00
2023-03-17T06:03:46.744Z,1613.00
2023-03-17T06:04:46.954Z,1726.00
2023-03-17T06:05:47.088Z,1887.00
2023-03-17T06:06:51.628Z,2066.00
2023-03-17T06:07:54.681Z,2211.00
2023-03-17T06:08:50.212Z,2296.00
2023-03-17T06:09:47.499Z,2360.00
2023-03-17T06:10:49.383Z,2446.00
2023-03-17T06:11:47.755Z,2607.00
2023-03-17T06:12:48.851Z,2716.00
2023-03-17T06:13:48.846Z,2703.00
2023-03-17T06:14:48.440Z,2730.00
2023-03-17T06:15:49.818Z,2842.00
2023-03-17T06:16:52.805Z,2979.00
2023-03-17T06:17:49.793Z,3018.00
2023-03-17T06:18:50.551Z,2971.00
2023-03-17T06:19:49.983Z,2996.00
2023-03-17T06:20:50.634Z,3182.00
2023-03-17T06:21:51.372Z,3437.00
2023-03-17T06:23:03.424Z,3691.00
2023-03-17T06:23:51.924Z,3763.00
2023-03-17T06:24:51.736Z,4039.00
2023-03-17T06:25:51.833Z,4191.00
2023-03-17T06:26:57.293Z,4196.00
2023-03-17T06:27:52.899Z,4363.00
2023-03-17T06:28:52.287Z,4390.00
2023-03-17T06:29:54.432Z,4615.00
2023-03-17T06:30:53.642Z,4566.00
2023-03-17T06:32:01.513Z,4339.00
2023-03-17T06:32:56.686Z,4599.00
2023-03-17T06:33:56.961Z,5087.00
2023-03-17T06:37:59.137Z,5650.00
2023-03-17T06:38:54.592Z,5977.00
2023-03-17T06:39:55.604Z,5869.00
2023-03-17T06:41:00.348Z,5935.00
2023-03-17T06:42:22.585Z,6201.00
2023-03-17T06:42:56.633Z,6420.00
2023-03-17T06:43:59.223Z,6288.00
2023-03-17T06:44:58.752Z,6352.00
2023-03-17T06:46:01.326Z,6522.00
2023-03-17T06:46:58.566Z,6634.00
2023-03-17T06:47:59.778Z,6651.00
2023-03-17T06:49:01.592Z,6305.00
2023-03-17T06:49:58.388Z,5907.00
2023-03-17T06:51:03.497Z,5302.00
2023-03-17T06:51:57.570Z,5732.00
2023-03-17T06:53:01.912Z,6085.00
2023-03-17T06:54:09.650Z,6207.00
2023-03-17T06:55:00.778Z,6313.00
2023-03-17T06:55:58.961Z,6429.00
2023-03-17T06:57:03.930Z,6664.00
2023-03-17T06:58:04.765Z,6798.00
2023-03-17T06:59:00.437Z,7016.00
2023-03-17T07:00:08.912Z,7337.00
2023-03-17T07:00:59.891Z,7596.00
2023-03-17T07:02:00.887Z,7919.00
2023-03-17T07:03:00.151Z,8140.00
2023-03-17T07:04:01.205Z,8299.00
2023-03-17T07:05:03.358Z,8094.00
2023-03-17T07:06:04.043Z,8808.00
2023-03-17T07:07:11.688Z,9896.00
2023-03-17T07:08:02.959Z,10261.00
2023-03-17T07:09:02.257Z,9478.00
2023-03-17T07:10:03.876Z,9521.00
2023-03-17T07:11:02.092Z,9513.00
2023-03-17T07:12:03.803Z,9956.00
2023-03-17T07:13:08.715Z,10506.00
2023-03-17T07:14:03.946Z,10416.00
2023-03-17T07:15:03.461Z,8371.00
2023-03-17T07:16:06.735Z,8597.00
2023-03-17T07:17:06.189Z,9093.00
2023-03-17T07:18:13.269Z,9628.00
2023-03-17T07:19:08.362Z,9378.00
2023-03-17T07:20:26.824Z,9358.00
2023-03-17T07:22:16.604Z,10044.00
2023-03-17T07:25:32.355Z,9667.00
2023-03-17T07:27:12.146Z,9219.00
2023-03-17T07:28:14.840Z,9572.00
2023-03-17T07:29:03.954Z,10015.00
2023-03-17T07:30:10.014Z,10208.00
2023-03-17T07:31:01.944Z,10763.00
2023-03-17T07:32:29.465Z,10536.00
2023-03-17T07:34:16.750Z,12601.00
2023-03-17T07:35:13.518Z,14041.00
2023-03-17T07:36:11.609Z,14056.00
2023-03-17T07:37:23.472Z,13312.00
2023-03-17T07:38:03.589Z,12559.00
2023-03-17T07:39:22.268Z,12454.00
2023-03-17T07:40:08.919Z,12521.00
2023-03-17T07:41:07.708Z,12700.00
2023-03-17T07:42:07.957Z,12106.00
2023-03-17T07:43:07.596Z,12346.00
2023-03-17T07:44:06.393Z,12034.00
2023-03-17T07:45:11.223Z,11919.00
2023-03-17T07:46:06.571Z,11365.00
2023-03-17T07:47:10.398Z,11789.00
2023-03-17T07:48:17.915Z,11517.00
2023-03-17T07:49:08.960Z,11831.00
2023-03-17T07:50:17.159Z,11784.00
2023-03-17T07:51:09.920Z,11741.00
2023-03-17T07:52:07.750Z,12419.00
2023-03-17T07:53:05.892Z,12921.00
2023-03-17T07:54:07.009Z,13285.00
2023-03-17T07:55:07.297Z,13975.00
2023-03-17T07:56:12.730Z,14348.00
2023-03-17T07:58:07.748Z,16290.00
2023-03-17T07:59:08.317Z,17504.00
2023-03-17T08:00:10.351Z,17728.00
2023-03-17T08:01:06.621Z,17736.00
2023-03-17T08:02:18.905Z,18232.00
2023-03-17T08:06:18.047Z,18720.00
2023-03-17T08:07:16.120Z,18896.00
2023-03-17T08:08:11.243Z,17448.00
2023-03-17T08:10:13.629Z,17528.00
2023-03-17T08:13:26.746Z,18552.00
2023-03-17T08:14:24.742Z,18696.00
2023-03-17T08:15:17.759Z,19936.00
2023-03-17T08:16:12.318Z,18976.00
2023-03-17T08:17:32.423Z,20568.00
2023-03-17T08:18:18.188Z,22200.00
2023-03-17T08:19:13.854Z,24048.00
2023-03-17T08:20:16.151Z,24608.00
2023-03-17T08:21:15.883Z,25176.00
2023-03-17T08:22:41.110Z,25840.00
2023-03-17T08:23:18.801Z,25528.00
2023-03-17T08:24:22.819Z,25256.00
2023-03-17T08:25:21.423Z,24608.00
2023-03-17T08:27:23.091Z,25504.00
2023-03-17T08:29:23.978Z,25216.00
2023-03-17T08:44:34.735Z,28648.00
2023-03-17T08:51:23.665Z,25064.00
2023-03-17T09:03:26.441Z,30416.00
2023-03-17T09:04:27.695Z,26304.00
2023-03-17T09:10:26.935Z,32960.00
2023-03-17T09:11:32.035Z,31496.00
2023-03-17T09:12:23.970Z,24080.00
2023-03-17T09:22:41.048Z,34248.00
2023-03-17T09:31:13.817Z,26920.00
2023-03-17T09:32:39.426Z,26160.00
2023-03-17T09:33:11.743Z,29848.00
2023-03-17T09:35:09.453Z,29520.00
2023-03-17T09:38:15.233Z,34824.00
2023-03-17T09:39:05.879Z,32720.00
2023-03-17T09:40:09.964Z,35632.00
2023-03-17T09:46:08.746Z,35672.00
2023-03-17T09:51:24.693Z,39088.00
2023-03-17T09:53:04.568Z,40136.00
2023-03-17T09:58:34.871Z,41616.00
2023-03-17T09:59:12.663Z,40280.00
2023-03-17T10:00:07.264Z,38720.00
2023-03-17T10:01:07.046Z,38744.00
2023-03-17T10:02:11.244Z,37824.00
2023-03-17T10:03:19.906Z,36256.00
2023-03-17T10:04:12.695Z,35088.00
2023-03-17T10:05:12.827Z,34392.00
2023-03-17T10:06:13.233Z,34312.00
2023-03-17T10:07:18.607Z,33752.00
2023-03-17T10:08:29.931Z,34880.00
2023-03-17T10:09:20.935Z,37904.00
2023-03-17T10:12:14.149Z,41864.00
2023-03-17T10:13:16.228Z,39712.00
2023-03-17T10:14:19.549Z,38600.00
2023-03-17T10:15:14.644Z,42368.00
2023-03-17T10:16:13.816Z,43136.00
2023-03-17T10:17:15.233Z,49336.00
2023-03-17T10:18:15.847Z,45216.00
2023-03-17T10:19:17.113Z,53072.00
2023-03-17T10:22:25.658Z,36720.00
2023-03-17T10:23:26.478Z,38888.00
2023-03-17T10:27:29.748Z,41888.00
2023-03-17T10:28:14.429Z,41744.00
2023-03-17T10:29:36.826Z,65535.00
2023-03-17T10:30:17.844Z,49168.00
2023-03-17T10:31:37.239Z,37832.00
2023-03-17T10:34:25.834Z,32616.00
2023-03-17T10:35:34.770Z,38312.00
2023-03-17T10:36:35.726Z,32616.00
2023-03-17T10:37:33.876Z,42200.00
2023-03-17T10:38:31.559Z,42824.00
2023-03-17T10:39:23.934Z,51128.00
2023-03-17T10:40:25.186Z,50616.00
2023-03-17T10:43:33.991Z,36280.00
2023-03-17T10:44:22.910Z,46352.00
2023-03-17T10:45:44.155Z,41792.00
2023-03-17T10:47:23.736Z,40552.00
2023-03-17T10:50:55.142Z,24600.00
2023-03-17T10:51:18.342Z,37784.00
2023-03-17T10:52:26.026Z,15616.00
2023-03-17T10:53:24.859Z,24312.00
2023-03-17T10:54:27.893Z,28000.00
2023-03-17T10:55:17.757Z,32352.00
2023-03-17T10:56:17.817Z,37912.00
2023-03-17T10:57:21.530Z,38136.00
2023-03-17T10:58:31.267Z,39336.00
2023-03-17T10:59:44.254Z,39360.00
2023-03-17T11:00:54.384Z,31448.00
2023-03-17T11:01:24.207Z,35152.00
2023-03-17T11:02:28.105Z,37520.00
2023-03-17T11:03:38.406Z,42672.00
2023-03-17T11:04:40.424Z,23352.00
2023-03-17T11:09:32.728Z,29144.00
2023-03-17T11:13:26.895Z,25456.00
2023-03-17T11:14:45.527Z,36240.00
2023-03-17T11:15:51.893Z,30552.00
2023-03-17T11:17:31.974Z,29776.00
2023-03-17T11:18:34.824Z,31912.00
2023-03-17T11:19:31.462Z,33944.00
2023-03-17T11:20:35.396Z,34936.00
2023-03-17T11:21:29.393Z,40960.00
2023-03-17T11:22:29.745Z,49952.00
2023-03-17T11:23:29.997Z,27848.00
2023-03-17T11:25:30.676Z,38936.00
2023-03-17T11:26:29.058Z,31536.00
2023-03-17T11:27:32.196Z,34232.00
2023-03-17T11:28:32.243Z,34360.00
2023-03-17T11:29:32.401Z,28912.00
2023-03-17T11:30:37.086Z,32464.00
2023-03-17T11:31:29.878Z,33496.00
2023-03-17T11:32:29.455Z,31816.00
2023-03-17T11:33:31.855Z,30016.00
2023-03-17T11:34:29.990Z,28928.00
2023-03-17T11:35:31.266Z,33544.00
2023-03-17T11:36:32.217Z,36704.00
2023-03-17T11:37:33.351Z,50272.00
2023-03-17T11:38:33.196Z,27144.00
2023-03-17T11:39:31.728Z,33168.00
2023-03-17T11:40:35.635Z,34528.00
2023-03-17T11:41:32.311Z,36256.00
2023-03-17T11:42:31.174Z,43816.00
2023-03-17T11:43:33.193Z,47512.00
2023-03-17T11:44:31.910Z,39632.00
2023-03-17T11:45:34.027Z,45624.00
2023-03-17T11:49:32.747Z,30248.00
2023-03-17T11:54:36.181Z,34208.00
2023-03-17T11:55:36.627Z,33256.00
2023-03-17T11:56:39.393Z,42632.00
2023-03-17T11:57:34.578Z,44512.00
2023-03-17T11:58:35.217Z,38656.00
2023-03-17T11:59:42.339Z,41072.00
2023-03-17T12:00:38.161Z,40232.00
2023-03-17T12:01:36.784Z,33224.00
2023-03-17T12:02:38.295Z,30776.00
2023-03-17T12:03:37.063Z,42240.00
2023-03-17T12:04:36.592Z,40776.00
2023-03-17T12:05:39.717Z,45872.00
2023-03-17T12:06:38.329Z,41672.00
2023-03-17T12:07:37.203Z,34352.00
2023-03-17T12:08:37.884Z,37168.00
2023-03-17T12:09:37.357Z,33312.00
2023-03-17T12:10:37.910Z,34104.00
2023-03-17T12:11:39.412Z,30104.00
2023-03-17T12:12:37.247Z,30888.00
2023-03-17T12:13:37.475Z,27152.00
2023-03-17T12:14:38.079Z,29728.00
2023-03-17T12:15:37.982Z,26248.00
2023-03-17T12:16:38.520Z,30568.00
2023-03-17T12:17:38.533Z,26712.00
2023-03-17T12:18:39.310Z,27832.00
2023-03-17T12:19:38.780Z,27008.00
2023-03-17T12:20:39.138Z,28496.00
2023-03-17T12:21:39.321Z,27472.00
2023-03-17T12:22:41.716Z,30736.00
2023-03-17T12:24:29.583Z,32904.00
2023-03-17T12:24:47.186Z,25264.00
2023-03-17T12:25:48.748Z,24984.00
2023-03-17T12:26:49.836Z,24968.00
2023-03-17T12:27:50.871Z,28944.00
2023-03-17T12:28:52.178Z,25352.00
2023-03-17T12:29:48.028Z,25168.00
2023-03-17T12:30:48.029Z,25032.00
2023-03-17T12:31:50.303Z,25392.00
2023-03-17T12:32:49.055Z,27240.00
2023-03-17T12:33:51.287Z,24928.00
2023-03-17T12:34:48.550Z,24600.00
2023-03-17T12:35:53.095Z,25480.00
2023-03-17T12:36:48.965Z,24336.00
2023-03-17T12:37:52.482Z,24720.00
2023-03-17T12:38:49.776Z,24784.00
2023-03-17T12:39:49.062Z,24976.00
2023-03-17T12:40:50.314Z,25288.00
2023-03-17T12:41:49.698Z,25112.00
2023-03-17T12:42:50.646Z,24112.00
2023-03-17T12:43:50.887Z,23432.00
2023-03-17T12:44:52.252Z,23000.00
2023-03-17T12:45:51.577Z,23304.00
2023-03-17T12:46:50.635Z,22152.00
2023-03-17T12:47:54.415Z,22152.00
2023-03-17T12:48:53.269Z,21720.00
2023-03-17T12:49:53.309Z,21744.00
2023-03-17T12:50:51.825Z,21832.00
2023-03-17T12:51:52.866Z,21248.00
2023-03-17T12:52:52.204Z,20888.00
2023-03-17T12:53:53.273Z,20656.00
2023-03-17T12:54:52.981Z,20568.00
2023-03-17T12:55:54.718Z,20592.00
2023-03-17T12:56:54.211Z,20696.00
2023-03-17T12:57:54.308Z,20912.00
2023-03-17T12:58:54.332Z,21008.00
2023-03-17T12:59:54.388Z,20960.00
2023-03-17T13:00:54.868Z,20944.00
2023-03-17T13:01:54.900Z,20808.00
2023-03-17T13:02:55.861Z,20640.00
2023-03-17T13:03:57.757Z,20600.00
2023-03-17T13:04:55.397Z,20648.00
2023-03-17T13:05:55.495Z,20696.00
2023-03-17T13:07:56.262Z,20416.00
2023-03-17T13:08:56.899Z,20288.00
2023-03-17T13:09:58.228Z,20176.00
2023-03-17T13:10:56.379Z,20024.00
2023-03-17T13:11:56.168Z,19872.00
2023-03-17T13:12:56.190Z,19784.00
2023-03-17T13:14:07.330Z,19568.00
2023-03-17T13:14:58.245Z,19192.00
2023-03-17T13:15:57.663Z,18840.00
2023-03-17T13:16:57.965Z,18672.00
2023-03-17T13:17:58.240Z,18752.00
2023-03-17T13:18:57.792Z,18928.00
2023-03-17T13:20:00.717Z,19464.00
2023-03-17T13:21:00.320Z,19848.00
2023-03-17T13:22:01.279Z,20080.00
2023-03-17T13:23:01.280Z,20288.00
2023-03-17T13:23:59.458Z,20264.00
2023-03-17T13:25:01.292Z,20104.00
2023-03-17T13:26:00.212Z,19944.00
2023-03-17T13:27:03.492Z,19832.00
2023-03-17T13:27:59.754Z,19760.00
2023-03-17T13:29:02.374Z,19632.00
2023-03-17T13:30:02.148Z,19496.00
2023-03-17T13:31:03.770Z,19248.00
2023-03-17T13:32:00.762Z,18952.00
2023-03-17T13:33:07.735Z,18632.00
2023-03-17T13:34:03.211Z,18328.00
2023-03-17T13:35:02.825Z,18056.00
2023-03-17T13:36:02.182Z,17637.00
2023-03-17T13:37:10.290Z,17316.00
2023-03-17T13:38:04.319Z,16946.00
2023-03-17T13:39:18.371Z,16598.00
2023-03-17T13:40:02.794Z,16301.00
2023-03-17T13:41:03.505Z,16108.00
2023-03-17T13:42:08.770Z,15953.00
2023-03-17T13:43:02.676Z,15861.00
2023-03-17T13:44:03.741Z,15872.00
2023-03-17T13:45:02.785Z,15951.00
2023-03-17T13:46:03.650Z,16123.00
2023-03-17T13:47:04.637Z,16193.00
2023-03-17T13:48:04.352Z,16163.00
2023-03-17T13:49:03.870Z,16037.00
2023-03-17T13:50:04.695Z,15790.00
2023-03-17T13:51:05.039Z,15506.00
2023-03-17T13:52:05.177Z,15180.00
2023-03-17T13:53:05.452Z,15036.00
2023-03-17T13:54:06.147Z,14959.00
2023-03-17T13:55:05.946Z,14981.00
2023-03-17T13:56:07.278Z,15004.00
2023-03-17T13:57:08.744Z,15038.00
2023-03-17T13:58:07.348Z,15059.00
2023-03-17T13:59:06.347Z,15102.00
2023-03-17T14:00:07.274Z,15331.00
2023-03-17T14:01:07.620Z,15653.00
2023-03-17T14:02:08.857Z,15948.00
2023-03-17T14:03:08.229Z,16169.00
2023-03-17T14:04:10.946Z,16295.00
2023-03-17T14:05:07.524Z,16169.00
2023-03-17T14:06:09.458Z,16076.00
2023-03-17T14:07:10.277Z,15857.00
2023-03-17T14:08:09.570Z,15520.00
2023-03-17T14:09:09.773Z,15311.00
2023-03-17T14:10:10.792Z,15145.00
2023-03-17T14:11:12.454Z,14845.00
2023-03-17T14:12:10.196Z,14752.00
2023-03-17T14:13:09.639Z,14780.00
2023-03-17T14:14:13.241Z,14747.00
2023-03-17T14:15:10.200Z,14758.00
2023-03-17T14:16:10.378Z,14778.00
2023-03-17T14:17:14.321Z,14681.00
2023-03-17T14:18:11.172Z,14522.00
2023-03-17T14:19:20.763Z,14433.00
2023-03-17T14:20:12.158Z,14256.00
2023-03-17T14:21:14.753Z,13989.00
2023-03-17T14:22:12.329Z,13732.00
2023-03-17T14:23:14.802Z,13441.00
2023-03-17T14:24:13.368Z,13098.00
2023-03-17T14:25:13.019Z,12828.00
2023-03-17T14:26:13.924Z,12590.00
2023-03-17T14:27:17.797Z,12452.00
2023-03-17T14:28:15.304Z,12432.00
2023-03-17T14:29:14.691Z,12400.00
2023-03-17T14:30:16.154Z,12295.00